メインページ
METAR-TAF:

METAR-TAF

空港 :

デンバー国際空港

デンバー, コロラド州, アメリカ合衆国

緯度: 39-49-58N, 経度: 104-39-27W, 海抜: 1655m

現時点の気象観測

当レポートは19分前の01:53(UTC)に作成
南/南東の風 7kt
気温 -1°C
湿度 40%
気圧 1021 hPa
視程: 16.1km
高度15000ftの雲はほとんどない
高度22000ftの雲は散在している

METAR: KDEN 150153Z 16007KT 10SM FEW150 SCT220 M01/M13 A3016 RMK AO2 SLP231 T10111128

時間: 19:12 (02:12 UTC)

予報

当レポートは2時間49分前の23:23(UTC)に作成
予報は15日の 00時(UTC)から 16日の 06時(UTC)まで有効
南/南東の風 12kt
視程: 10km
高度22000ftの雲は散在している
15日の 0500時(UTC)から
南/南西の風 8kt
視程: 10km
高度15000ftの雲は散在している
高度22000ftの千切れ雲あり
15日の 1200時(UTC)から
南西の風 6kt
視程: 10km
高度15000ftの千切れ雲あり
15日の 2000時(UTC)から
北西の風 5kt
視程: 10km
高度15000ftの雲は散在している
高度22000ftの雲は散在している
15日の 2300時(UTC)から
の風 5kt
視程: 10km
高度15000ftの雲は散在している
高度22000ftの雲は散在している
16日の 0200時(UTC)から
南/南東の風 7kt
視程: 10km
高度22000ftの雲は散在している

TAF: KDEN 142323Z 1500/1606 15012KT P6SM SCT220 FM150500 21008KT P6SM SCT150 BKN220 FM151200 23006KT P6SM BKN150 FM152000 31005KT P6SM SCT150 SCT220 FM152300 08005KT P6SM SCT150 SCT220 FM160200 16007KT P6SM SCT220

4,000以上の空港の気象観測と天気予報(METAR報とTAF報)

利用可能な観測所は地図上に黄色い丸と赤い丸で示す。

丸の上にカーソルを重ねると観測所名を参照できる。

次にクリックすると気象観測と天気予報を参照できる。

マップの切り替え:黒色「×」印の緑ボタンをクリックして拡大、「-」印の緑ボタンをクリックして縮小、緑色の三角印をクリックして隣りの地図に切り替え


METAR-TAF: